ADDS METAR Data INFO
IDs: Format: Raw Decoded Include TAF

Data at: 0111 UTC 21 Oct 2017

K1H2 210055Z AUTO 12006KT 10SM CLR 19/10 A3012 RMK AO2 T01890095
K1H2 210035Z AUTO 12007KT 10SM CLR 19/10 A3012 RMK AO2 T01900097
K1H2 210015Z AUTO 11006KT 10SM CLR 19/10 A3012 RMK AO2 T01890101
K1H2 202355Z AUTO 12006KT 10SM CLR 20/10 A3012 RMK AO2 T01960102 10256 20189
K1H2 202335Z AUTO 12005KT 10SM CLR 19/11 A3012 RMK AO2 T01940105
K1H2 202315Z AUTO 13003KT 10SM CLR 20/10 A3012 RMK AO2 T01950104
K1H2 202255Z AUTO 12005KT 10SM CLR 20/11 A3012 RMK AO2 T02000105
K1H2 202235Z AUTO 13003KT 10SM CLR 22/10 A3012 RMK AO2 T02220096
K1H2 202215Z AUTO 14004KT 10SM CLR 23/10 A3013 RMK AO2 T02300095
K1H2 202155Z AUTO 13006KT 10SM CLR 24/10 A3013 RMK AO2 T02400097
K1H2 202135Z AUTO 13011KT 10SM CLR 25/10 A3013 RMK AO2 T02470095
K1H2 202115Z AUTO 13007KT 10SM CLR 24/09 A3014 RMK AO2 T02430092
K1H2 202055Z AUTO 15006KT 10SM CLR 25/09 A3014 RMK AO2 T02450090
K1H2 202035Z AUTO 14006KT 10SM CLR 25/08 A3014 RMK AO2 T02500082
K1H2 202015Z AUTO 15010KT 10SM CLR 26/09 A3014 RMK AO2 T02560085
K1H2 201955Z AUTO 14007KT 10SM CLR 25/09 A3014 RMK AO2 T02510091
K1H2 201935Z AUTO 14007KT 10SM CLR 25/09 A3014 RMK AO2 T02500091
K1H2 201915Z AUTO 15008KT 10SM CLR 25/09 A3016 RMK AO2 T02520091
K1H2 201855Z AUTO 12008KT 10SM CLR 25/10 A3017 RMK AO2 T02500103
K1H2 201835Z AUTO 13009KT 10SM CLR 25/11 A3018 RMK AO2 T02500106
K1H2 201815Z AUTO 18007KT 10SM CLR 25/11 A3019 RMK AO2 T02460107
K1H2 201755Z AUTO 15006KT 10SM CLR 24/10 A3021 RMK AO2 T02410100 10241 20095
K1H2 201735Z AUTO 13008KT 10SM CLR 24/11 A3021 RMK AO2 T02350113
K1H2 201715Z AUTO 20005KT 10SM CLR 24/12 A3022 RMK AO2 T02350115
K1H2 201655Z AUTO 17005KT 10SM CLR 23/11 A3024 RMK AO2 T02310111
K1H2 201635Z AUTO 17009KT 10SM CLR 23/11 A3025 RMK AO2 T02250114
K1H2 201615Z AUTO 17008KT 10SM CLR 22/12 A3025 RMK AO2 T02170118
K1H2 201555Z AUTO 16008KT 10SM CLR 21/12 A3026 RMK AO2 T02100124
K1H2 201535Z AUTO 17005KT 10SM CLR 20/12 A3026 RMK AO2 T02000124
K1H2 201515Z AUTO 18003KT 10SM CLR 19/12 A3026 RMK AO2 T01870123
K1H2 201455Z AUTO 17004KT 10SM CLR 18/12 A3027 RMK AO2 T01760122
K1H2 201435Z AUTO 15003KT 10SM CLR 17/13 A3027 RMK AO2 T01660126
K1H2 201415Z AUTO 13003KT 10SM CLR 16/13 A3026 RMK AO2 T01550125
K1H2 201355Z AUTO 00000KT 10SM CLR 15/12 A3027 RMK AO2 T01450121
K1H2 201335Z AUTO 00000KT 10SM CLR 14/12 A3027 RMK AO2 T01370120
K1H2 201315Z AUTO 13003KT 10SM CLR 13/12 A3027 RMK AO2 T01250117
K1H2 201255Z AUTO 14003KT 10SM CLR 11/11 A3026 RMK AO2 T01050105
K1H2 201235Z AUTO 12003KT 10SM CLR 10/10 A3026 RMK AO2 T00950095
K1H2 201215Z AUTO 00000KT 10SM CLR 10/10 A3026 RMK AO2 T00950095
K1H2 201155Z AUTO 00000KT 10SM CLR 10/10 A3026 RMK AO2 T00960096 10111 20090
K1H2 201135Z AUTO 12003KT 10SM CLR 10/10 A3025 RMK AO2 T00960096
K1H2 201115Z AUTO 11003KT 10SM CLR 10/10 A3025 RMK AO2 T00960095
K1H2 201055Z AUTO 00000KT 10SM CLR 10/10 A3024 RMK AO2 T01000099
K1H2 201035Z AUTO 12003KT 10SM CLR 10/10 A3024 RMK AO2 T01020100
K1H2 201015Z AUTO 12003KT 10SM CLR 11/10 A3023 RMK AO2 T01050104
K1H2 200955Z AUTO 12003KT 10SM CLR 10/10 A3023 RMK AO2 T01020100
K1H2 200935Z AUTO 11003KT 10SM CLR 10/10 A3023 RMK AO2 T01010100
K1H2 200915Z AUTO 12003KT 10SM CLR 10/10 A3023 RMK AO2 T01020101
K1H2 200855Z AUTO 11003KT 10SM CLR 10/10 A3022 RMK AO2 T01020101
K1H2 200835Z AUTO 11003KT 10SM CLR 10/10 A3022 RMK AO2 T00980098
K1H2 200815Z AUTO 11003KT 10SM CLR 10/10 A3022 RMK AO2 T01010100
K1H2 200755Z AUTO 10003KT 10SM CLR 10/10 A3022 RMK AO2 T00980098
K1H2 200735Z AUTO 11003KT 10SM CLR 10/10 A3022 RMK AO2 T00970097
K1H2 200715Z AUTO 00000KT 10SM CLR 10/10 A3022 RMK AO2 T01000099
K1H2 200655Z AUTO 10003KT 10SM CLR 10/10 A3022 RMK AO2 T01030100
K1H2 200635Z AUTO 00000KT 10SM CLR 11/10 A3021 RMK AO2 T01060104
K1H2 200615Z AUTO 00000KT 10SM CLR 11/11 A3021 RMK AO2 T01100106
K1H2 200555Z AUTO 00000KT 10SM CLR 11/11 A3021 RMK AO2 T01110107 10176 20110 402600090
K1H2 200535Z AUTO 00000KT 10SM CLR 11/10 A3021 RMK AO2 T01110101
K1H2 200515Z AUTO 00000KT 10SM CLR 12/11 A3021 RMK AO2 T01160108
K1H2 200455Z AUTO 00000KT 10SM CLR 12/11 A3021 RMK AO2 T01150108
K1H2 200435Z AUTO 00000KT 10SM CLR 12/11 A3021 RMK AO2 T01150108
K1H2 200415Z AUTO 00000KT 10SM CLR 12/11 A3021 RMK AO2 T01180107
K1H2 200355Z AUTO 00000KT 10SM CLR 12/11 A3021 RMK AO2 T01200111
K1H2 200335Z AUTO 00000KT 10SM CLR 12/11 A3021 RMK AO2 T01220112
K1H2 200315Z AUTO 00000KT 10SM CLR 12/11 A3021 RMK AO2 T01220114
K1H2 200255Z AUTO 00000KT 10SM CLR 13/11 A3021 RMK AO2 T01250113
K1H2 200235Z AUTO 00000KT 10SM CLR 13/12 A3021 RMK AO2 T01260115
K1H2 200215Z AUTO 00000KT 10SM CLR 13/12 A3020 RMK AO2 T01300115
K1H2 200155Z AUTO 00000KT 10SM CLR 13/11 A3020 RMK AO2 T01310109
K1H2 200135Z AUTO 00000KT 10SM CLR 14/11 A3020 RMK AO2 T01350110
K1H2 200115Z AUTO 00000KT 10SM CLR 14/11 A3020 RMK AO2 T01420113
K1H2 200055Z AUTO 00000KT 10SM CLR 15/11 A3020 RMK AO2 T01520111
K1H2 200035Z AUTO 00000KT 10SM CLR 16/11 A3020 RMK AO2 T01570111
K1H2 200015Z AUTO 00000KT 10SM CLR 17/11 A3020 RMK AO2 T01680111
K1H2 192355Z AUTO 00000KT 10SM CLR 18/12 A3019 RMK AO2 T01770115 10260 20171
K1H2 192335Z AUTO 00000KT 10SM CLR 18/11 A3019 RMK AO2 T01820111
K1H2 192315Z AUTO 00000KT 10SM CLR 20/11 A3018 RMK AO2 T02030105
K1H2 192255Z AUTO 00000KT 10SM CLR 23/10 A3018 RMK AO2 T02320097
K1H2 192235Z AUTO 15003KT 10SM CLR 24/10 A3018 RMK AO2 T02410100
K1H2 192215Z AUTO 15003KT 10SM CLR 25/10 A3018 RMK AO2 T02470102
K1H2 192155Z AUTO 14004KT 10SM CLR 25/10 A3017 RMK AO2 T02510102
K1H2 192135Z AUTO 21005KT 10SM CLR 26/10 A3017 RMK AO2 T02560099
K1H2 192115Z AUTO 18004KT 10SM CLR 26/10 A3017 RMK AO2 T02580095
K1H2 192055Z AUTO 20005KT 10SM CLR 26/10 A3018 RMK AO2 T02600099
K1H2 192035Z AUTO 18006KT 10SM CLR 26/10 A3018 RMK AO2 T02600101
K1H2 192015Z AUTO 20007KT 10SM CLR 26/10 A3018 RMK AO2 T02570098
K1H2 191955Z AUTO 19003KT 10SM CLR 26/10 A3018 RMK AO2 T02560103
K1H2 191935Z AUTO 00000KT 10SM CLR 25/10 A3018 RMK AO2 T02530102
K1H2 191915Z AUTO 19006KT 10SM CLR 25/11 A3018 RMK AO2 T02520108
K1H2 191855Z AUTO 24003KT 10SM CLR 25/10 A3018 RMK AO2 T02510104
K1H2 191835Z AUTO 15005KT 10SM CLR 25/11 A3019 RMK AO2 T02470106
K1H2 191815Z AUTO 00000KT 10SM CLR 24/11 A3020 RMK AO2 T02440106
K1H2 191755Z AUTO 20004KT 10SM CLR 24/11 A3021 RMK AO2 T02410109 10241 20090
K1H2 191735Z AUTO 22003KT 10SM CLR 24/10 A3022 RMK AO2 T02350104
K1H2 191715Z AUTO 25003KT 10SM CLR 23/10 A3022 RMK AO2 T02310104
K1H2 191655Z AUTO 28003KT 10SM CLR 23/10 A3023 RMK AO2 T02260103
K1H2 191635Z AUTO 24003KT 10SM CLR 22/11 A3023 RMK AO2 T02210112
K1H2 191615Z AUTO 23004KT 10SM CLR 21/11 A3023 RMK AO2 T02140113
K1H2 191555Z AUTO 23005KT 10SM CLR 20/12 A3023 RMK AO2 T02040117
K1H2 191535Z AUTO 23006KT 10SM CLR 19/12 A3023 RMK AO2 T01940117
K1H2 191515Z AUTO 23006KT 10SM CLR 18/11 A3023 RMK AO2 T01810112
K1H2 191455Z AUTO 22008KT 10SM CLR 17/11 A3022 RMK AO2 T01700110
K1H2 191435Z AUTO 21005KT 10SM CLR 16/11 A3022 RMK AO2 T01560110
K1H2 191415Z AUTO 20005KT 10SM CLR 15/11 A3022 RMK AO2 T01450107
K1H2 191355Z AUTO 19005KT 10SM CLR 13/10 A3021 RMK AO2 T01330104
K1H2 191335Z AUTO 18004KT 10SM CLR 12/10 A3021 RMK AO2 T01200101
K1H2 191315Z AUTO 17004KT 10SM CLR 11/10 A3020 RMK AO2 T01100100